Time;durP1;ratioP1;P1;durP2;ratioP2;P2;SDS_P1;SDS_P2;PMS_P1;PMS_P2;Temp;Humidity;BMP_temperature;BMP_pressure;BME280_temperature;BME280_humidity;BME280_pressure;Samples;Min_cycle;Max_cycle;Signal;HPM_P1;HPM_P2
2023/01/07 00:01:07;;;;;;;40.97;18.42;;;;;;;;;;5079432;28;20119;-84
2023/01/07 00:03:33;;;;;;;44.28;20.48;;;;;;;;;;5083216;28;20037;-83
2023/01/07 00:05:59;;;;;;;48.10;20.42;;;;;;;;;;5066690;28;20130;-84
2023/01/07 00:08:24;;;;;;;48.75;19.40;;;;;;;;;;5060518;28;20079;-83
2023/01/07 00:10:50;;;;;;;43.92;17.05;;;;;;;;;;5075099;28;20482;-84
2023/01/07 00:13:15;;;;;;;43.92;17.88;;;;;;;;;;5075906;28;20098;-84
2023/01/07 00:15:41;;;;;;;54.20;19.73;;;;;;;;;;5075781;28;20032;-83
2023/01/07 00:18:06;;;;;;;55.40;19.30;;;;;;;;;;5076123;28;20024;-84
2023/01/07 00:20:31;;;;;;;48.13;19.02;;;;;;;;;;5075933;28;20043;-84
2023/01/07 00:22:57;;;;;;;54.55;19.75;;;;;;;;;;5075594;28;20039;-84
2023/01/07 00:25:22;;;;;;;50.03;20.45;;;;;;;;;;5075299;28;20043;-83
2023/01/07 00:27:48;;;;;;;43.67;18.48;;;;;;;;;;5074696;28;20491;-83
2023/01/07 00:30:13;;;;;;;48.95;17.60;;;;;;;;;;5074568;28;20070;-83
2023/01/07 00:35:22;;;;;;;42.88;16.42;;;;;;;;;;5074093;28;20055;-83
2023/01/07 00:37:52;;;;;;;35.17;14.93;;;;;;;;;;5077630;28;20033;-84
2023/01/07 00:40:17;;;;;;;37.97;16.88;;;;;;;;;;5075296;28;20036;-83
2023/01/07 00:43:00;;;;;;;40.70;17.10;;;;;;;;;;5076332;28;20033;-84
2023/01/07 00:45:32;;;;;;;40.45;16.55;;;;;;;;;;5074582;28;20036;-83
2023/01/07 00:47:58;;;;;;;37.17;16.40;;;;;;;;;;5075142;28;20024;-84
2023/01/07 00:50:29;;;;;;;42.95;17.15;;;;;;;;;;5057293;28;20030;-83
2023/01/07 00:52:55;;;;;;;36.72;15.18;;;;;;;;;;5074017;28;20032;-84
2023/01/07 00:55:21;;;;;;;37.13;15.82;;;;;;;;;;5074113;28;20047;-83
2023/01/07 00:57:46;;;;;;;38.13;14.55;;;;;;;;;;5078565;28;20064;-83
2023/01/07 01:00:13;;;;;;;43.05;16.25;;;;;;;;;;5073879;28;20144;-84
2023/01/07 01:02:38;;;;;;;31.08;14.98;;;;;;;;;;5075606;28;20028;-83
2023/01/07 01:05:04;;;;;;;33.50;14.43;;;;;;;;;;5073182;28;20101;-83
2023/01/07 01:07:29;;;;;;;34.08;14.70;;;;;;;;;;5073808;28;20117;-83
2023/01/07 01:09:55;;;;;;;36.00;13.80;;;;;;;;;;5075082;28;20044;-84
2023/01/07 01:12:20;;;;;;;30.85;13.82;;;;;;;;;;5075056;28;20032;-83
2023/01/07 01:14:46;;;;;;;34.08;13.63;;;;;;;;;;5074773;28;20071;-83
2023/01/07 01:17:11;;;;;;;34.95;14.88;;;;;;;;;;5076246;28;20304;-83
2023/01/07 01:19:36;;;;;;;38.10;15.55;;;;;;;;;;5074344;28;20036;-83
2023/01/07 01:22:02;;;;;;;33.22;14.27;;;;;;;;;;5075299;28;20497;-83
2023/01/07 01:24:27;;;;;;;35.63;14.60;;;;;;;;;;5056766;28;20373;-83
2023/01/07 01:26:53;;;;;;;33.53;15.07;;;;;;;;;;5074413;28;20029;-83
2023/01/07 01:29:18;;;;;;;33.38;14.93;;;;;;;;;;5074684;28;20039;-83
2023/01/07 01:31:44;;;;;;;30.80;15.07;;;;;;;;;;5074517;28;20032;-83
2023/01/07 01:34:09;;;;;;;34.20;15.48;;;;;;;;;;5074116;28;20398;-83
2023/01/07 01:36:37;;;;;;;38.03;16.58;;;;;;;;;;5078992;28;20085;-83
2023/01/07 01:39:03;;;;;;;33.10;14.07;;;;;;;;;;5074603;28;20043;-82
2023/01/07 01:41:29;;;;;;;39.78;13.43;;;;;;;;;;5040507;28;20035;-83
2023/01/07 01:43:54;;;;;;;32.65;13.63;;;;;;;;;;5073072;28;20660;-83
2023/01/07 01:46:30;;;;;;;27.00;11.32;;;;;;;;;;5074042;28;20047;-83
2023/01/07 01:49:22;;;;;;;29.33;11.80;;;;;;;;;;5056752;28;20060;-83
2023/01/07 01:51:56;;;;;;;28.80;11.40;;;;;;;;;;5056437;28;20355;-83
2023/01/07 01:54:22;;;;;;;24.52;11.05;;;;;;;;;;5079575;28;20029;-83
2023/01/07 01:56:48;;;;;;;21.33;10.93;;;;;;;;;;5056381;28;20024;-83
2023/01/07 01:59:17;;;;;;;24.23;10.85;;;;;;;;;;5052659;28;20031;-83
2023/01/07 02:01:42;;;;;;;25.20;9.77;;;;;;;;;;5069587;28;20371;-83
2023/01/07 02:04:10;;;;;;;27.48;11.73;;;;;;;;;;5052389;28;20029;-83
2023/01/07 02:06:38;;;;;;;25.15;11.57;;;;;;;;;;5069509;28;20033;-84
2023/01/07 02:09:03;;;;;;;30.92;12.55;;;;;;;;;;5052577;28;20029;-84
2023/01/07 02:11:53;;;;;;;35.15;12.13;;;;;;;;;;5053692;28;20094;-83
2023/01/07 02:14:41;;;;;;;28.53;12.87;;;;;;;;;;5061533;28;20055;-83
2023/01/07 02:17:24;;;;;;;34.95;14.68;;;;;;;;;;5035496;28;20036;-84
2023/01/07 02:20:07;;;;;;;36.60;14.93;;;;;;;;;;5069071;28;20406;-84
2023/01/07 02:22:48;;;;;;;31.63;14.98;;;;;;;;;;5052728;28;20051;-84
2023/01/07 02:25:22;;;;;;;;;;;;;;;;;;5053016;28;20403;-84
2023/01/07 02:27:59;;;;;;;28.30;13.80;;;;;;;;;;5053613;28;19948;-84
2023/01/07 02:30:54;;;;;;;32.28;14.18;;;;;;;;;;5052805;28;20040;-83
2023/01/07 02:33:28;;;;;;;33.20;13.18;;;;;;;;;;5055659;28;20025;-84
2023/01/07 02:36:02;;;;;;;29.77;11.70;;;;;;;;;;5055425;28;20075;-84
2023/01/07 02:38:33;;;;;;;26.55;11.32;;;;;;;;;;5053793;28;20037;-84
2023/01/07 02:41:29;;;;;;;28.90;11.32;;;;;;;;;;5053745;28;20457;-83
2023/01/07 02:44:10;;;;;;;24.83;9.90;;;;;;;;;;5047171;28;20383;-84
2023/01/07 02:46:51;;;;;;;24.52;10.75;;;;;;;;;;5019771;28;20565;-84
2023/01/07 02:49:16;;;;;;;28.48;11.95;;;;;;;;;;5085729;28;20025;-84
2023/01/07 02:51:43;;;;;;;28.55;12.80;;;;;;;;;;5020670;28;20029;-83
2023/01/07 02:54:11;;;;;;;33.20;13.93;;;;;;;;;;5075474;28;20024;-84
2023/01/07 02:57:05;;;;;;;37.45;15.02;;;;;;;;;;5069007;28;20041;-85
2023/01/07 03:00:03;;;;;;;33.45;14.15;;;;;;;;;;5075838;28;20062;-84
2023/01/07 03:02:43;;;;;;;29.13;13.70;;;;;;;;;;5075782;28;20411;-83
2023/01/07 03:05:09;;;;;;;33.67;15.23;;;;;;;;;;5076099;28;20029;-84
2023/01/07 03:07:52;;;;;;;34.30;15.13;;;;;;;;;;5078907;28;20099;-85
2023/01/07 03:10:38;;;;;;;36.33;16.23;;;;;;;;;;5063313;28;20123;-85
2023/01/07 03:13:10;;;;;;;43.83;16.30;;;;;;;;;;5067596;28;20450;-84
2023/01/07 03:15:42;;;;;;;40.20;15.23;;;;;;;;;;5059913;28;20044;-84
2023/01/07 03:18:26;;;;;;;35.50;15.32;;;;;;;;;;5075948;28;20072;-84
2023/01/07 03:20:54;;;;;;;35.88;15.55;;;;;;;;;;5075926;28;20091;-84
2023/01/07 03:23:21;;;;;;;35.88;15.90;;;;;;;;;;5059083;28;20064;-84
2023/01/07 03:25:46;;;;;;;44.10;17.95;;;;;;;;;;5059355;28;20020;-84
2023/01/07 03:28:14;;;;;;;44.47;18.48;;;;;;;;;;5059211;28;20043;-84
2023/01/07 03:30:40;;;;;;;43.22;19.50;;;;;;;;;;5060273;28;20032;-84
2023/01/07 03:33:27;;;;;;;39.92;17.17;;;;;;;;;;5064098;28;20496;-83
2023/01/07 03:35:53;;;;;;;47.60;17.98;;;;;;;;;;5059319;28;20117;-84
2023/01/07 03:38:18;;;;;;;41.30;19.42;;;;;;;;;;5075438;28;20442;-84
2023/01/07 03:40:43;;;;;;;46.17;19.35;;;;;;;;;;5058994;28;20036;-84
2023/01/07 03:43:12;;;;;;;47.58;17.08;;;;;;;;;;5042241;28;20468;-85
2023/01/07 03:45:38;;;;;;;44.78;18.88;;;;;;;;;;5075021;28;20074;-84
2023/01/07 03:48:04;;;;;;;38.97;17.30;;;;;;;;;;5058762;28;20028;-85
2023/01/07 03:50:29;;;;;;;35.05;17.00;;;;;;;;;;5078953;28;20035;-85
2023/01/07 03:52:54;;;;;;;37.72;17.08;;;;;;;;;;5080589;28;20024;-84
2023/01/07 03:55:20;;;;;;;51.97;18.30;;;;;;;;;;5076047;28;20024;-85
2023/01/07 03:57:45;;;;;;;46.85;17.17;;;;;;;;;;5076000;28;20020;-84
2023/01/07 04:00:11;;;;;;;44.58;18.67;;;;;;;;;;5074914;28;20355;-84
2023/01/07 04:02:37;;;;;;;48.92;21.23;;;;;;;;;;5058786;28;20028;-85
2023/01/07 04:05:03;;;;;;;47.70;19.60;;;;;;;;;;5075018;28;20142;-84
2023/01/07 04:07:28;;;;;;;37.78;18.10;;;;;;;;;;5076505;28;20066;-84
2023/01/07 04:09:53;;;;;;;48.67;18.08;;;;;;;;;;5074840;28;20036;-84
2023/01/07 04:12:19;;;;;;;42.35;17.50;;;;;;;;;;5078851;28;20025;-84
2023/01/07 04:14:44;;;;;;;44.55;18.33;;;;;;;;;;5075771;28;20033;-84
2023/01/07 04:17:10;;;;;;;46.10;19.35;;;;;;;;;;5057997;28;20035;-84
2023/01/07 04:19:37;;;;;;;51.63;22.42;;;;;;;;;;5075678;28;20497;-84
2023/01/07 04:22:04;;;;;;;57.53;23.65;;;;;;;;;;5075635;28;20369;-84
2023/01/07 04:24:30;;;;;;;49.05;23.60;;;;;;;;;;5075615;28;20454;-84
2023/01/07 04:26:55;;;;;;;54.63;24.63;;;;;;;;;;5075122;28;20107;-83
2023/01/07 04:29:21;;;;;;;48.10;22.40;;;;;;;;;;5080469;28;20032;-84
2023/01/07 04:31:47;;;;;;;52.80;23.10;;;;;;;;;;5077687;28;20086;-85
2023/01/07 04:34:13;;;;;;;46.40;23.15;;;;;;;;;;5070673;28;20045;-84
2023/01/07 04:36:38;;;;;;;56.05;23.27;;;;;;;;;;5092279;28;20044;-84
2023/01/07 04:39:04;;;;;;;53.17;22.30;;;;;;;;;;5091533;28;20047;-85
2023/01/07 04:41:29;;;;;;;55.25;24.15;;;;;;;;;;5075968;28;20033;-83
2023/01/07 04:43:54;;;;;;;56.70;23.65;;;;;;;;;;5075495;28;20075;-84
2023/01/07 04:46:20;;;;;;;49.35;23.83;;;;;;;;;;5075514;28;20033;-83
2023/01/07 04:48:45;;;;;;;53.03;24.48;;;;;;;;;;5077969;28;20062;-84
2023/01/07 04:51:11;;;;;;;54.65;24.30;;;;;;;;;;5074791;28;20055;-84
2023/01/07 04:53:37;;;;;;;65.95;28.65;;;;;;;;;;5075186;28;20462;-84
2023/01/07 04:56:05;;;;;;;73.15;32.20;;;;;;;;;;5075266;28;20173;-84
2023/01/07 04:58:30;;;;;;;69.10;29.98;;;;;;;;;;5073505;28;20335;-84
2023/01/07 05:00:57;;;;;;;65.47;28.35;;;;;;;;;;5073981;28;20029;-83
2023/01/07 05:03:23;;;;;;;50.38;20.60;;;;;;;;;;5057110;28;20032;-84
2023/01/07 05:05:48;;;;;;;53.35;24.67;;;;;;;;;;5074039;28;20036;-83
2023/01/07 05:08:14;;;;;;;52.60;22.50;;;;;;;;;;5076011;28;20354;-84
2023/01/07 05:10:39;;;;;;;56.72;24.85;;;;;;;;;;5075395;28;20355;-84
2023/01/07 05:13:05;;;;;;;58.97;23.70;;;;;;;;;;5074332;28;20464;-84
2023/01/07 05:15:30;;;;;;;58.45;23.50;;;;;;;;;;5074555;28;20427;-84
2023/01/07 05:17:56;;;;;;;52.70;22.40;;;;;;;;;;5074688;28;20034;-84
2023/01/07 05:20:21;;;;;;;51.67;22.88;;;;;;;;;;5073865;28;20064;-84
2023/01/07 05:22:47;;;;;;;59.63;24.13;;;;;;;;;;5075170;28;20424;-84
2023/01/07 05:25:12;;;;;;;55.00;22.83;;;;;;;;;;5073568;28;20433;-84
2023/01/07 05:27:38;;;;;;;53.75;22.15;;;;;;;;;;5075394;28;20037;-84
2023/01/07 05:30:04;;;;;;;41.10;17.80;;;;;;;;;;5075507;28;20036;-84
2023/01/07 05:32:29;;;;;;;42.55;19.48;;;;;;;;;;5073578;28;20721;-84
2023/01/07 05:34:55;;;;;;;52.05;23.33;;;;;;;;;;5056586;28;20097;-85
2023/01/07 05:37:20;;;;;;;59.60;23.38;;;;;;;;;;5039987;28;20048;-84
2023/01/07 05:39:46;;;;;;;43.88;21.00;;;;;;;;;;5056582;28;20041;-84
2023/01/07 05:42:11;;;;;;;44.67;21.48;;;;;;;;;;5073077;28;20042;-84
2023/01/07 05:44:36;;;;;;;52.75;23.35;;;;;;;;;;5074430;28;20036;-84
2023/01/07 05:47:02;;;;;;;65.75;26.98;;;;;;;;;;5075748;28;20075;-85
2023/01/07 05:49:27;;;;;;;66.03;29.92;;;;;;;;;;5074831;28;20032;-84
2023/01/07 05:51:53;;;;;;;66.30;30.80;;;;;;;;;;5074442;28;20063;-85
2023/01/07 05:54:19;;;;;;;73.97;35.15;;;;;;;;;;5073126;28;20043;-84
2023/01/07 05:56:45;;;;;;;82.38;36.10;;;;;;;;;;5056390;28;20425;-84
2023/01/07 05:59:10;;;;;;;78.25;38.95;;;;;;;;;;5055913;28;20074;-85
2023/01/07 06:01:35;;;;;;;72.57;36.00;;;;;;;;;;5059668;28;20060;-82
2023/01/07 06:04:01;;;;;;;75.22;36.45;;;;;;;;;;5058887;28;20043;-84
2023/01/07 06:06:26;;;;;;;79.13;36.95;;;;;;;;;;5075740;28;20041;-84
2023/01/07 06:08:52;;;;;;;76.50;35.10;;;;;;;;;;5076111;28;20036;-84
2023/01/07 06:11:17;;;;;;;69.45;31.17;;;;;;;;;;5056237;28;20036;-84
2023/01/07 06:13:43;;;;;;;76.68;34.35;;;;;;;;;;5073845;28;20119;-84
2023/01/07 06:16:09;;;;;;;79.65;32.25;;;;;;;;;;5073267;28;20036;-84
2023/01/07 06:18:34;;;;;;;170.00;74.80;;;;;;;;;;5074684;28;20117;-84
2023/01/07 06:21:00;;;;;;;84.65;36.53;;;;;;;;;;5074304;28;20041;-83
2023/01/07 06:23:25;;;;;;;86.63;39.47;;;;;;;;;;5074435;28;20276;-85
2023/01/07 06:25:51;;;;;;;97.03;47.03;;;;;;;;;;5073798;28;20051;-84
2023/01/07 06:28:16;;;;;;;100.68;46.42;;;;;;;;;;5075532;28;20045;-84
2023/01/07 06:30:45;;;;;;;81.13;35.47;;;;;;;;;;5074059;28;20056;-84
2023/01/07 06:33:11;;;;;;;81.38;34.65;;;;;;;;;;5076584;28;20480;-84
2023/01/07 06:35:37;;;;;;;73.40;34.90;;;;;;;;;;5078000;28;20079;-84
2023/01/07 06:38:02;;;;;;;97.63;44.40;;;;;;;;;;5076448;28;20048;-84
2023/01/07 06:40:27;;;;;;;119.45;48.30;;;;;;;;;;5080785;28;20025;-84
2023/01/07 06:42:54;;;;;;;146.38;64.05;;;;;;;;;;5060827;28;20025;-84
2023/01/07 06:45:19;;;;;;;122.82;54.00;;;;;;;;;;5079736;28;20701;-84
2023/01/07 06:47:47;;;;;;;112.63;50.63;;;;;;;;;;5064932;28;20048;-85
2023/01/07 06:50:13;;;;;;;115.03;47.60;;;;;;;;;;5077679;28;20060;-84
2023/01/07 06:52:39;;;;;;;110.22;46.90;;;;;;;;;;5076509;28;20033;-84
2023/01/07 06:55:04;;;;;;;128.98;56.92;;;;;;;;;;5076793;28;20033;-84
2023/01/07 06:57:30;;;;;;;130.63;59.25;;;;;;;;;;5076236;28;20093;-84
2023/01/07 06:59:55;;;;;;;130.68;57.80;;;;;;;;;;5078227;28;20379;-84
2023/01/07 07:02:22;;;;;;;131.68;60.42;;;;;;;;;;5075933;28;20465;-84
2023/01/07 07:04:48;;;;;;;181.90;89.57;;;;;;;;;;5076446;28;20036;-84
2023/01/07 07:07:13;;;;;;;218.02;110.47;;;;;;;;;;5078921;28;20350;-84
2023/01/07 07:09:39;;;;;;;230.48;115.63;;;;;;;;;;5075597;28;20064;-83
2023/01/07 07:12:04;;;;;;;173.23;83.75;;;;;;;;;;5077229;28;20130;-83
2023/01/07 07:14:30;;;;;;;198.15;113.35;;;;;;;;;;5076175;28;20453;-83
2023/01/07 07:16:55;;;;;;;200.38;105.63;;;;;;;;;;5078826;28;20040;-84
2023/01/07 07:19:21;;;;;;;142.75;76.03;;;;;;;;;;5059341;28;20048;-83
2023/01/07 07:21:46;;;;;;;103.22;50.15;;;;;;;;;;5076000;28;20432;-84
2023/01/07 07:24:12;;;;;;;91.03;38.22;;;;;;;;;;5075589;28;20025;-83
2023/01/07 07:26:38;;;;;;;78.97;34.70;;;;;;;;;;5081063;28;20123;-83
2023/01/07 07:29:03;;;;;;;141.13;62.60;;;;;;;;;;5075866;28;20143;-84
2023/01/07 07:31:29;;;;;;;101.13;41.53;;;;;;;;;;5076758;28;20398;-84
2023/01/07 07:33:54;;;;;;;63.00;30.30;;;;;;;;;;5075904;28;20066;-85
2023/01/07 07:36:20;;;;;;;71.70;30.08;;;;;;;;;;5076903;28;20262;-84
2023/01/07 07:38:45;;;;;;;71.10;30.38;;;;;;;;;;5059135;28;20362;-84
2023/01/07 07:41:10;;;;;;;72.80;32.42;;;;;;;;;;5076940;28;20351;-84
2023/01/07 07:43:36;;;;;;;72.70;27.75;;;;;;;;;;5076376;28;20097;-84
2023/01/07 07:46:02;;;;;;;66.40;31.15;;;;;;;;;;5081117;28;20036;-84
2023/01/07 07:48:28;;;;;;;56.85;23.73;;;;;;;;;;5058280;28;20045;-84
2023/01/07 07:50:53;;;;;;;58.05;24.83;;;;;;;;;;5074791;28;20032;-84
2023/01/07 07:53:19;;;;;;;60.38;28.75;;;;;;;;;;5076586;28;20376;-84
2023/01/07 07:55:45;;;;;;;55.33;27.65;;;;;;;;;;5075922;28;20032;-84
2023/01/07 07:58:10;;;;;;;48.28;24.50;;;;;;;;;;5076636;28;20393;-84
2023/01/07 08:00:36;;;;;;;49.10;24.15;;;;;;;;;;5076705;28;20112;-84
2023/01/07 08:03:01;;;;;;;57.47;25.80;;;;;;;;;;5076490;28;20425;-84
2023/01/07 08:05:27;;;;;;;64.72;29.50;;;;;;;;;;5084090;28;20460;-84
2023/01/07 08:07:52;;;;;;;53.83;25.55;;;;;;;;;;5075228;28;20033;-84
2023/01/07 08:10:19;;;;;;;60.15;25.75;;;;;;;;;;5074882;28;20062;-84
2023/01/07 08:12:44;;;;;;;46.65;22.33;;;;;;;;;;5076045;28;20033;-85
2023/01/07 08:15:10;;;;;;;41.92;20.92;;;;;;;;;;5058062;28;20028;-84
2023/01/07 08:17:35;;;;;;;47.50;22.70;;;;;;;;;;5076065;28;20416;-85
2023/01/07 08:20:04;;;;;;;44.53;22.02;;;;;;;;;;5075518;28;20146;-84
2023/01/07 08:22:32;;;;;;;43.83;21.92;;;;;;;;;;5076233;28;20033;-82
2023/01/07 08:24:57;;;;;;;42.30;22.55;;;;;;;;;;5082888;28;20065;-83
2023/01/07 08:27:23;;;;;;;47.67;22.60;;;;;;;;;;5073947;28;20028;-85
2023/01/07 08:29:48;;;;;;;52.22;23.85;;;;;;;;;;5074960;28;20029;-83
2023/01/07 08:32:14;;;;;;;52.13;24.15;;;;;;;;;;5076607;28;20027;-86
2023/01/07 08:34:39;;;;;;;55.25;25.92;;;;;;;;;;5056900;28;20058;-85
2023/01/07 08:37:05;;;;;;;56.08;26.33;;;;;;;;;;5074728;28;20059;-85
2023/01/07 08:39:30;;;;;;;45.25;22.80;;;;;;;;;;5072774;28;20228;-83
2023/01/07 08:41:56;;;;;;;39.97;19.60;;;;;;;;;;5074006;28;20052;-83
2023/01/07 08:44:21;;;;;;;42.38;20.98;;;;;;;;;;5079482;28;20310;-84
2023/01/07 08:46:47;;;;;;;41.22;20.92;;;;;;;;;;5073304;28;20024;-84
2023/01/07 08:49:12;;;;;;;51.13;22.48;;;;;;;;;;5073219;28;20119;-84
2023/01/07 08:51:37;;;;;;;53.50;25.10;;;;;;;;;;5071215;28;20033;-84
2023/01/07 08:54:03;;;;;;;48.72;23.58;;;;;;;;;;5071539;28;20115;-84
2023/01/07 08:56:28;;;;;;;45.63;21.67;;;;;;;;;;5070883;28;20143;-84
2023/01/07 08:58:54;;;;;;;39.88;21.02;;;;;;;;;;5072466;28;20115;-84
2023/01/07 09:01:19;;;;;;;41.50;21.60;;;;;;;;;;5074887;28;20051;-84
2023/01/07 09:03:45;;;;;;;41.13;20.90;;;;;;;;;;5064161;28;20040;-84
2023/01/07 09:06:10;;;;;;;41.70;21.23;;;;;;;;;;5057154;28;20138;-84
2023/01/07 09:08:36;;;;;;;42.53;22.13;;;;;;;;;;5075314;28;20366;-84
2023/01/07 09:11:01;;;;;;;42.20;22.45;;;;;;;;;;5074589;28;20382;-84
2023/01/07 09:13:27;;;;;;;46.13;22.15;;;;;;;;;;5073220;28;20024;-83
2023/01/07 09:15:52;;;;;;;48.83;24.70;;;;;;;;;;5073159;28;20028;-83
2023/01/07 09:18:21;;;;;;;54.33;27.20;;;;;;;;;;5073256;28;20024;-83
2023/01/07 09:20:46;;;;;;;65.28;29.10;;;;;;;;;;5072565;28;20044;-83
2023/01/07 09:23:12;;;;;;;64.57;29.13;;;;;;;;;;5060978;28;20024;-83
2023/01/07 09:25:37;;;;;;;62.47;31.75;;;;;;;;;;5073451;28;20039;-83
2023/01/07 09:28:03;;;;;;;67.88;32.78;;;;;;;;;;5077241;28;20052;-84
2023/01/07 09:30:28;;;;;;;63.08;30.10;;;;;;;;;;5075112;28;20033;-83
2023/01/07 09:32:54;;;;;;;59.55;27.85;;;;;;;;;;5072666;28;20028;-84
2023/01/07 09:35:19;;;;;;;57.15;27.90;;;;;;;;;;5074187;28;20449;-84
2023/01/07 09:37:44;;;;;;;56.50;27.58;;;;;;;;;;5073216;28;20518;-83
2023/01/07 09:40:25;;;;;;;51.75;27.85;;;;;;;;;;5074434;28;20315;-82
2023/01/07 09:42:56;;;;;;;39.00;22.10;;;;;;;;;;5062283;28;20489;-83
2023/01/07 09:45:31;;;;;;;43.47;21.13;;;;;;;;;;5072384;28;20039;-84
2023/01/07 09:47:57;;;;;;;44.45;24.17;;;;;;;;;;5037971;28;20035;-83
2023/01/07 09:50:46;;;;;;;46.55;24.58;;;;;;;;;;5054645;28;20025;-84
2023/01/07 09:53:27;;;;;;;44.13;23.38;;;;;;;;;;5071184;28;20040;-84
2023/01/07 09:55:54;;;;;;;51.10;23.52;;;;;;;;;;5070884;28;20442;-84
2023/01/07 09:58:20;;;;;;;47.95;24.63;;;;;;;;;;5070893;28;20059;-84
2023/01/07 10:00:56;;;;;;;50.55;24.58;;;;;;;;;;5075668;28;20024;-84
2023/01/07 10:03:28;;;;;;;38.05;17.45;;;;;;;;;;5070961;28;20509;-84
2023/01/07 10:06:10;;;;;;;34.45;17.90;;;;;;;;;;5073501;28;20141;-85
2023/01/07 10:09:06;;;;;;;35.33;17.65;;;;;;;;;;5055711;28;20040;-84
2023/01/07 10:11:51;;;;;;;30.42;15.32;;;;;;;;;;5073119;28;20089;-84
2023/01/07 10:14:37;;;;;;;25.98;14.70;;;;;;;;;;5073093;28;20056;-83
2023/01/07 10:17:16;;;;;;;28.27;15.07;;;;;;;;;;5056987;28;20458;-84
2023/01/07 10:19:58;;;;;;;31.25;15.38;;;;;;;;;;5086117;28;20017;-84
2023/01/07 10:22:31;;;;;;;30.08;15.10;;;;;;;;;;5063439;28;20119;-84
2023/01/07 10:24:58;;;;;;;28.35;16.02;;;;;;;;;;5056688;28;20040;-85
2023/01/07 10:27:32;;;;;;;31.35;16.23;;;;;;;;;;5055616;28;20131;-84
2023/01/07 10:30:00;;;;;;;34.40;16.60;;;;;;;;;;5055079;28;20082;-84
2023/01/07 10:32:29;;;;;;;28.33;16.17;;;;;;;;;;5070322;28;20036;-85
2023/01/07 10:34:55;;;;;;;27.10;14.43;;;;;;;;;;5054465;28;20056;-84
2023/01/07 10:37:40;;;;;;;30.67;15.82;;;;;;;;;;5074749;28;20040;-84
2023/01/07 10:40:26;;;;;;;36.60;17.38;;;;;;;;;;5087326;28;20362;-84
2023/01/07 10:43:13;;;;;;;30.60;16.08;;;;;;;;;;5063904;28;20048;-82
2023/01/07 10:45:49;;;;;;;34.78;17.25;;;;;;;;;;5080463;28;20067;-84
2023/01/07 10:48:33;;;;;;;27.40;15.95;;;;;;;;;;5083519;28;20385;-84
2023/01/07 10:51:27;;;;;;;32.65;17.83;;;;;;;;;;5080474;28;20068;-84
2023/01/07 10:53:59;;;;;;;34.20;17.05;;;;;;;;;;5079435;28;20032;-84
2023/01/07 10:56:31;;;;;;;30.42;15.98;;;;;;;;;;5056955;28;20047;-84
2023/01/07 10:58:56;;;;;;;32.20;16.40;;;;;;;;;;5084602;28;20044;-84
2023/01/07 11:01:28;;;;;;;47.35;24.35;;;;;;;;;;5055087;28;20036;-85
2023/01/07 11:03:55;;;;;;;32.58;17.27;;;;;;;;;;5051770;28;20466;-84
2023/01/07 11:06:40;;;;;;;37.40;16.88;;;;;;;;;;5068401;28;20033;-84
2023/01/07 11:09:08;;;;;;;30.20;16.52;;;;;;;;;;5052090;28;20060;-84
2023/01/07 11:11:33;;;;;;;31.20;17.02;;;;;;;;;;5069301;28;20040;-84
2023/01/07 11:14:01;;;;;;;35.33;16.67;;;;;;;;;;5051973;28;20124;-84
2023/01/07 11:16:29;;;;;;;32.88;16.30;;;;;;;;;;5085515;28;20060;-84
2023/01/07 11:19:03;;;;;;;32.25;16.85;;;;;;;;;;5079293;28;20037;-84
2023/01/07 11:21:44;;;;;;;29.45;17.08;;;;;;;;;;5056164;28;20465;-84
2023/01/07 11:24:32;;;;;;;31.90;17.38;;;;;;;;;;5075099;28;20044;-84
2023/01/07 11:27:11;;;;;;;30.95;17.23;;;;;;;;;;5074930;28;20059;-84
2023/01/07 11:29:55;;;;;;;34.10;18.77;;;;;;;;;;5059458;28;20267;-84
2023/01/07 11:32:31;;;;;;;33.47;18.23;;;;;;;;;;5075718;28;20377;-84
2023/01/07 11:35:04;;;;;;;35.05;19.08;;;;;;;;;;5058747;28;20052;-83
2023/01/07 11:37:37;;;;;;;32.80;18.33;;;;;;;;;;5060460;28;20032;-84
2023/01/07 11:40:24;;;;;;;32.15;17.60;;;;;;;;;;5074926;28;20436;-85
2023/01/07 11:42:57;;;;;;;41.70;18.05;;;;;;;;;;5073749;28;20573;-84
2023/01/07 11:45:26;;;;;;;34.45;18.60;;;;;;;;;;5072955;28;20469;-84
2023/01/07 11:48:15;;;;;;;36.75;18.75;;;;;;;;;;5058103;28;20037;-84
2023/01/07 11:50:54;;;;;;;33.08;18.50;;;;;;;;;;5075695;28;20032;-84
2023/01/07 11:53:33;;;;;;;36.20;19.50;;;;;;;;;;5074726;28;20033;-84
2023/01/07 11:56:05;;;;;;;36.63;17.73;;;;;;;;;;5077641;28;20033;-83
2023/01/07 11:58:42;;;;;;;36.55;17.70;;;;;;;;;;5080326;28;20064;-84
2023/01/07 12:01:07;;;;;;;32.42;17.38;;;;;;;;;;5076541;28;20090;-84
2023/01/07 12:03:44;;;;;;;29.75;16.75;;;;;;;;;;5076305;28;20029;-83
2023/01/07 12:06:20;;;;;;;30.27;16.60;;;;;;;;;;5075104;28;20028;-83
2023/01/07 12:08:51;;;;;;;34.85;17.85;;;;;;;;;;5058904;28;20462;-83
2023/01/07 12:11:17;;;;;;;31.63;16.83;;;;;;;;;;5058526;28;20039;-83
2023/01/07 12:13:48;;;;;;;30.45;16.02;;;;;;;;;;5074449;28;20374;-84
2023/01/07 12:16:13;;;;;;;31.08;15.63;;;;;;;;;;5063996;28;20067;-83
2023/01/07 12:19:03;;;;;;;29.25;15.60;;;;;;;;;;5060654;28;20040;-85
2023/01/07 12:21:59;;;;;;;41.07;21.77;;;;;;;;;;5074656;28;20036;-84
2023/01/07 12:24:57;;;;;;;28.90;15.80;;;;;;;;;;5074392;28;20090;-83
2023/01/07 12:27:41;;;;;;;32.90;16.73;;;;;;;;;;5041382;28;20036;-83
2023/01/07 12:30:37;;;;;;;31.35;17.45;;;;;;;;;;5074579;28;20113;-84
2023/01/07 12:33:20;;;;;;;34.95;16.70;;;;;;;;;;5075888;28;20028;-84
2023/01/07 12:35:45;;;;;;;33.90;17.83;;;;;;;;;;5076487;28;20113;-84
2023/01/07 12:38:45;;;;;;;32.17;18.42;;;;;;;;;;5075766;28;20040;-83
2023/01/07 12:41:18;;;;;;;33.42;19.13;;;;;;;;;;5071448;28;20450;-84
2023/01/07 12:43:54;;;;;;;40.20;20.45;;;;;;;;;;5058767;28;20032;-83
2023/01/07 12:46:20;;;;;;;38.47;20.20;;;;;;;;;;5075738;28;20032;-84
2023/01/07 12:49:06;;;;;;;44.60;21.67;;;;;;;;;;5075506;28;20041;-85
2023/01/07 12:51:40;;;;;;;35.78;19.80;;;;;;;;;;5074201;28;20032;-85
2023/01/07 12:54:53;;;;;;;40.72;20.65;;;;;;;;;;5059749;28;20058;-86
2023/01/07 12:57:37;;;;;;;39.67;20.70;;;;;;;;;;5057556;28;20052;-82
2023/01/07 13:00:07;;;;;;;49.38;21.33;;;;;;;;;;5058411;28;20024;-83
2023/01/07 13:03:02;;;;;;;38.95;21.75;;;;;;;;;;5076160;28;20035;-84
2023/01/07 13:05:35;;;;;;;40.65;19.75;;;;;;;;;;5075347;28;20111;-85
2023/01/07 13:08:48;;;;;;;37.40;19.13;;;;;;;;;;5057787;28;20036;-85
2023/01/07 13:11:19;;;;;;;39.42;18.70;;;;;;;;;;5068749;28;20040;-85
2023/01/07 13:13:46;;;;;;;;;;;;;;;;;;5077094;28;20029;-86
2023/01/07 13:16:11;;;;;;;37.17;19.85;;;;;;;;;;5059695;28;19918;-84
2023/01/07 13:18:37;;;;;;;35.10;18.80;;;;;;;;;;5073833;28;20502;-85
2023/01/07 13:21:02;;;;;;;39.42;18.63;;;;;;;;;;5073323;28;20028;-85
2023/01/07 13:23:46;;;;;;;34.08;18.85;;;;;;;;;;5074579;28;20031;-85
2023/01/07 13:26:21;;;;;;;40.30;19.75;;;;;;;;;;5074270;28;20028;-85
2023/01/07 13:29:01;;;;;;;41.47;19.33;;;;;;;;;;5073353;28;20044;-83
2023/01/07 13:31:45;;;;;;;;;;;;;;;;;;5075047;28;20028;-83
2023/01/07 13:34:13;;;;;;;39.08;20.02;;;;;;;;;;5074913;28;20349;-82
2023/01/07 13:37:01;;;;;;;38.22;19.83;;;;;;;;;;5074562;28;20070;-83
2023/01/07 13:39:26;;;;;;;38.97;20.10;;;;;;;;;;5074140;28;20063;-83
2023/01/07 13:42:15;;;;;;;37.13;19.85;;;;;;;;;;5072589;28;20071;-83
2023/01/07 13:44:48;;;;;;;44.28;19.77;;;;;;;;;;5058249;28;20082;-85
2023/01/07 13:47:14;;;;;;;45.53;21.27;;;;;;;;;;5073814;28;20028;-83
2023/01/07 13:49:40;;;;;;;41.58;22.10;;;;;;;;;;5073506;28;20032;-83
2023/01/07 13:52:19;;;;;;;42.97;21.70;;;;;;;;;;5077311;28;20062;-83
2023/01/07 13:54:48;;;;;;;50.42;22.00;;;;;;;;;;5081620;28;20032;-85
2023/01/07 13:57:22;;;;;;;39.85;19.67;;;;;;;;;;5073934;28;20127;-83
2023/01/07 13:59:51;;;;;;;42.08;20.52;;;;;;;;;;5073952;28;20035;-85
2023/01/07 14:02:23;;;;;;;40.45;19.90;;;;;;;;;;5072975;28;20032;-85
2023/01/07 14:04:50;;;;;;;39.20;19.98;;;;;;;;;;5074112;28;20112;-85
2023/01/07 14:07:16;;;;;;;40.97;20.10;;;;;;;;;;5073249;28;20043;-85
2023/01/07 14:09:41;;;;;;;44.13;20.17;;;;;;;;;;5074901;28;20032;-84
2023/01/07 14:12:25;;;;;;;38.88;19.90;;;;;;;;;;5075470;28;20036;-83
2023/01/07 14:15:05;;;;;;;40.88;19.17;;;;;;;;;;5086083;28;20032;-83
2023/01/07 14:17:47;;;;;;;43.55;19.48;;;;;;;;;;5046408;28;20355;-83
2023/01/07 14:20:21;;;;;;;43.13;19.85;;;;;;;;;;5056997;28;20420;-83
2023/01/07 14:23:03;;;;;;;37.78;18.50;;;;;;;;;;5072452;28;20047;-84
2023/01/07 14:25:34;;;;;;;41.45;19.42;;;;;;;;;;5073878;28;20033;-83
2023/01/07 14:28:11;;;;;;;39.97;18.88;;;;;;;;;;5074245;28;20067;-84
2023/01/07 14:30:44;;;;;;;37.25;18.73;;;;;;;;;;5074995;28;20039;-84
2023/01/07 14:33:28;;;;;;;39.67;19.50;;;;;;;;;;5079363;28;20473;-83
2023/01/07 14:36:04;;;;;;;39.63;19.67;;;;;;;;;;5072483;28;20089;-83
2023/01/07 14:38:32;;;;;;;40.15;19.15;;;;;;;;;;5055832;28;20028;-83